Time;durP1;ratioP1;P1;durP2;ratioP2;P2;SDS_P1;SDS_P2;PMS_P1;PMS_P2;Temp;Humidity;BMP_temperature;BMP_pressure;BME280_temperature;BME280_humidity;BME280_pressure;Samples;Min_cycle;Max_cycle;Signal;HPM_P1;HPM_P2
2024/01/15 00:02:46;;;;;;;;;63.75;51.25;;;;;3.59;67.14;100804.78;146606;618;47012;-68
2024/01/15 00:05:42;;;;;;;;;67.00;51.50;;;;;3.55;67.29;100801.06;146605;571;47010;-69
2024/01/15 00:08:39;;;;;;;;;60.25;45.75;;;;;3.54;66.82;100789.00;146601;680;47938;-69
2024/01/15 00:11:34;;;;;;;;;53.00;42.00;;;;;3.58;67.12;100793.63;146605;654;46010;-69
2024/01/15 00:14:26;;;;;;;;;50.25;42.00;;;;;3.62;66.32;100781.94;146605;681;46017;-71
2024/01/15 00:17:30;;;;;;;;;50.50;39.50;;;;;3.65;66.03;100795.91;146605;635;46020;-68
2024/01/15 00:20:31;;;;;;;;;52.75;41.25;;;;;3.72;66.35;100789.59;146600;569;48916;-68
2024/01/15 00:23:36;;;;;;;;;55.50;46.00;;;;;3.77;65.34;100784.81;146604;572;47010;-68
2024/01/15 00:26:46;;;;;;;;;50.00;40.50;;;;;2.26;65.23;100509.00;146605;606;46016;-68
2024/01/15 00:29:55;;;;;;;;;52.00;41.50;;;;;3.83;65.48;100777.59;146604;565;46011;-68
2024/01/15 00:32:56;;;;;;;;;50.50;40.25;;;;;3.82;64.88;100780.94;146604;665;46034;-68
2024/01/15 00:36:00;;;;;;;;;53.25;41.75;;;;;3.81;65.49;100785.19;146606;587;46020;-67
2024/01/15 00:38:58;;;;;;;;;48.50;38.75;;;;;3.85;65.64;100784.62;146603;624;46014;-69
2024/01/15 00:42:07;;;;;;;;;42.50;35.50;;;;;3.88;65.21;100782.31;146607;607;46020;-69
2024/01/15 00:44:58;;;;;;;;;41.50;34.75;;;;;3.97;65.29;100781.25;146604;703;47012;-68
2024/01/15 00:47:56;;;;;;;;;45.25;35.00;;;;;4.05;65.28;100778.53;146605;628;46020;-68
2024/01/15 00:51:23;;;;;;;;;;;;;;;;;;;;;
2024/01/15 00:54:18;;;;;;;;;42.75;37.00;;;;;4.32;64.53;100784.88;146608;588;46010;-68
2024/01/15 00:57:19;;;;;;;;;40.50;34.00;;;;;4.40;64.70;100775.19;146600;600;46016;-69
2024/01/15 01:00:27;;;;;;;;;52.00;41.25;;;;;4.48;63.68;100770.62;146608;565;46021;-69
2024/01/15 01:03:29;;;;;;;;;41.25;34.75;;;;;4.50;63.93;100766.53;146604;596;46012;-68
2024/01/15 01:06:35;;;;;;;;;48.50;38.25;;;;;4.51;63.47;100765.72;146607;591;46021;-70
2024/01/15 01:09:39;;;;;;;;;48.00;37.00;;;;;4.52;63.36;100764.97;146604;579;47012;-69
2024/01/15 01:12:51;;;;;;;;;43.25;37.00;;;;;4.49;63.12;100772.44;146607;629;46010;-69
2024/01/15 01:16:06;;;;;;;;;47.25;37.25;;;;;2.93;62.91;100490.41;146602;711;47012;-69
2024/01/15 01:19:09;;;;;;;;;32.75;29.25;;;;;4.60;63.55;100772.47;146601;641;47020;-69
2024/01/15 01:22:10;;;;;;;;;41.25;35.25;;;;;4.69;62.95;100768.81;146602;569;46022;-70
2024/01/15 01:25:11;;;;;;;;;36.75;33.25;;;;;4.77;63.28;100776.31;146604;572;46020;-68
2024/01/15 01:28:14;;;;;;;;;306.75;233.75;;;;;4.80;62.20;100775.66;146606;600;46917;-68
2024/01/15 01:31:18;;;;;;;;;;;;;;;;;;;;;
2024/01/15 01:34:12;;;;;;;;;204.75;160.25;;;;;4.62;62.59;100781.19;146613;624;47016;-69
2024/01/15 01:37:21;;;;;;;;;66.50;49.50;;;;;4.44;63.01;100779.78;146610;670;46021;-69
2024/01/15 01:40:40;;;;;;;;;36.50;31.25;;;;;4.21;63.70;100777.16;146605;599;47012;-71
2024/01/15 01:43:43;;;;;;;;;38.50;33.00;;;;;4.02;64.91;100765.44;146601;607;46033;-71
2024/01/15 01:46:45;;;;;;;;;35.00;33.00;;;;;3.93;65.30;100775.00;146604;621;46016;-71
2024/01/15 01:53:10;;;;;;;;;37.25;30.75;;;;;3.75;65.73;100751.34;146605;603;46016;-71
2024/01/15 01:56:24;;;;;;;;;35.50;32.25;;;;;3.65;65.23;100747.19;146605;580;47010;-70
2024/01/15 01:59:21;;;;;;;;;38.25;33.25;;;;;3.63;66.20;100750.38;146606;579;46034;-71
2024/01/15 02:02:40;;;;;;;;;28.75;26.00;;;;;1.91;65.67;100452.47;146607;593;46010;-71
2024/01/15 02:05:39;;;;;;;;;26.75;25.00;;;;;3.56;66.84;100731.06;146605;623;47013;-72
2024/01/15 02:08:50;;;;;;;;;31.75;28.50;;;;;3.48;66.36;100729.56;146607;684;46010;-70
2024/01/15 02:11:57;;;;;;;;;39.75;33.25;;;;;3.45;66.50;100716.50;146603;654;46016;-70
2024/01/15 02:14:59;;;;;;;;;28.75;26.75;;;;;3.43;66.28;100724.09;146606;681;47011;-70
2024/01/15 02:18:22;;;;;;;;;25.00;22.50;;;;;1.99;66.54;100460.75;146603;628;47016;-69
2024/01/15 02:21:20;;;;;;;;;27.00;22.50;;;;;3.37;67.22;100697.06;146603;564;47021;-69
2024/01/15 02:24:23;;;;;;;;;30.75;24.75;;;;;3.34;66.90;100704.50;146604;635;46016;-67
2024/01/15 02:27:17;;;;;;;;;29.75;24.50;;;;;3.35;67.70;100703.72;146606;570;46021;-67
2024/01/15 02:30:20;;;;;;;;;20.00;18.75;;;;;3.31;67.44;100686.34;146607;646;46016;-68
2024/01/15 02:33:23;;;;;;;;;19.75;19.00;;;;;3.30;67.38;100684.53;146606;591;46020;-68
2024/01/15 02:36:29;;;;;;;;;19.25;19.00;;;;;3.37;66.46;100686.81;146604;586;47012;-69
2024/01/15 02:39:38;;;;;;;;;20.50;18.75;;;;;3.40;66.94;100685.38;146608;643;47010;-68
2024/01/15 02:42:47;;;;;;;;;20.50;18.00;;;;;3.38;67.45;100688.59;146604;637;47013;-68
2024/01/15 02:45:52;;;;;;;;;;;;;;;;;;;;;
2024/01/15 02:49:05;;;;;;;;;22.75;20.50;;;;;1.53;68.04;100390.56;146604;569;46016;-68
2024/01/15 02:52:03;;;;;;;;;20.25;19.75;;;;;3.17;67.65;100685.22;146606;617;46021;-69
2024/01/15 02:55:06;;;;;;;;;21.50;18.50;;;;;3.16;67.99;100684.31;146606;599;46016;-68
2024/01/15 02:58:04;;;;;;;;;22.75;18.00;;;;;3.15;68.97;100676.53;146606;577;46024;-69
2024/01/15 03:00:59;;;;;;;;;15.00;14.50;;;;;3.14;68.08;100672.16;146604;599;46016;-70
2024/01/15 03:03:57;;;;;;;;;18.75;16.50;;;;;3.16;68.84;100674.09;146606;579;46031;-68
2024/01/15 03:06:58;;;;;;;;;16.00;15.00;;;;;3.19;69.00;100673.44;146604;582;46016;-68
2024/01/15 03:09:54;;;;;;;;;13.00;10.50;;;;;3.20;69.20;100668.41;146602;585;46033;-68
2024/01/15 03:12:54;;;;;;;;;12.25;11.00;;;;;3.23;69.07;100667.78;146607;616;47014;-68
2024/01/15 03:15:59;;;;;;;;;9.25;8.50;;;;;3.28;69.14;100673.28;146613;642;46012;-68
2024/01/15 03:19:04;;;;;;;;;11.50;7.25;;;;;3.33;68.88;100670.28;146603;576;46016;-68
2024/01/15 03:22:14;;;;;;;;;;;;;;;;;;;;;
2024/01/15 03:25:25;;;;;;;;;11.00;10.00;;;;;3.42;67.54;100675.25;146610;610;47012;-69
2024/01/15 03:28:37;;;;;;;;;12.25;11.00;;;;;1.80;68.10;100385.09;146610;574;47010;-69
2024/01/15 03:31:51;;;;;;;;;6.50;5.00;;;;;2.15;67.90;100440.75;146610;577;46016;-69
2024/01/15 03:34:52;;;;;;;;;12.75;9.75;;;;;3.52;67.70;100672.66;146613;657;46021;-70
2024/01/15 03:37:49;;;;;;;;;13.25;10.25;;;;;3.53;68.32;100668.41;146609;588;46016;-70
2024/01/15 03:40:47;;;;;;;;;6.50;4.25;;;;;3.53;67.63;100668.41;146614;742;47010;-71
2024/01/15 03:43:43;;;;;;;;;6.75;3.25;;;;;3.54;68.16;100663.38;146612;591;46016;-69
2024/01/15 03:46:43;;;;;;;;;7.00;6.00;;;;;3.57;67.66;100666.19;146614;622;47020;-69
2024/01/15 03:49:44;;;;;;;;;7.25;4.50;;;;;3.60;67.54;100657.84;146611;634;46016;-70
2024/01/15 03:52:51;;;;;;;;;5.75;5.25;;;;;3.60;67.87;100658.72;146613;565;46020;-69
2024/01/15 03:55:55;;;;;;;;;3.25;2.00;;;;;3.62;67.29;100641.81;146608;572;47014;-68
2024/01/15 03:58:47;;;;;;;;;5.00;4.50;;;;;3.68;67.01;100633.69;146612;581;47010;-68
2024/01/15 04:01:55;;;;;;;;;5.00;3.75;;;;;3.72;67.61;100639.97;146615;604;46012;-69
2024/01/15 04:04:50;;;;;;;;;4.75;3.50;;;;;3.73;67.31;100634.03;146616;648;46021;-69
2024/01/15 04:07:59;;;;;;;;;6.25;5.00;;;;;3.79;66.46;100637.06;146611;566;46012;-69
2024/01/15 04:11:01;;;;;;;;;4.50;4.00;;;;;3.85;67.07;100633.31;146613;710;47010;-70
2024/01/15 04:13:53;;;;;;;;;4.25;2.25;;;;;3.93;67.14;100631.34;146610;564;47016;-70
2024/01/15 04:16:50;;;;;;;;;2.00;2.00;;;;;4.03;67.81;100632.94;146613;628;46020;-71
2024/01/15 04:20:02;;;;;;;;;3.50;3.50;;;;;4.16;66.51;100633.94;146610;626;46035;-70
2024/01/15 04:23:11;;;;;;;;;;;;;;;;;;;;;
2024/01/15 04:26:20;;;;;;;;;5.00;3.00;;;;;4.39;66.17;100632.19;146610;564;46024;-71
2024/01/15 04:29:26;;;;;;;;;;;;;;;;;;;;;
2024/01/15 04:32:22;;;;;;;;;8.50;7.50;;;;;4.43;65.34;100638.47;146611;580;47012;-69
2024/01/15 04:35:29;;;;;;;;;13.25;10.50;;;;;4.47;65.24;100632.78;146612;633;46010;-67
2024/01/15 04:38:23;;;;;;;;;9.50;8.00;;;;;4.47;65.54;100627.66;146610;670;47012;-68
2024/01/15 04:41:23;;;;;;;;;6.75;5.00;;;;;4.48;65.89;100630.31;146615;589;46020;-68
2024/01/15 04:44:23;;;;;;;;;165.00;132.75;;;;;4.45;66.02;100642.03;146602;604;47016;-68
2024/01/15 04:47:22;;;;;;;;;54.50;40.75;;;;;4.46;66.22;100643.84;146609;587;46010;-68
2024/01/15 04:50:20;;;;;;;;;51.00;41.75;;;;;4.45;66.57;100650.63;146601;574;46016;-67
2024/01/15 04:53:13;;;;;;;;;15.50;14.25;;;;;4.47;65.87;100650.75;146606;598;46020;-68
2024/01/15 04:56:21;;;;;;;;;9.50;8.25;;;;;2.98;65.66;100399.44;146602;569;47014;-69
2024/01/15 04:59:27;;;;;;;;;25.25;21.50;;;;;2.75;65.97;100369.53;146608;697;46020;-68
2024/01/15 05:02:23;;;;;;;;;20.00;18.50;;;;;4.41;66.19;100653.75;146607;604;47012;-67
2024/01/15 05:05:23;;;;;;;;;16.75;14.00;;;;;4.36;66.91;100648.28;146605;564;47010;-67
2024/01/15 05:08:27;;;;;;;;;11.25;9.25;;;;;4.35;67.99;100641.34;146608;569;46016;-66
2024/01/15 05:11:29;;;;;;;;;9.50;7.50;;;;;4.33;68.00;100640.37;146615;656;46021;-66
2024/01/15 05:14:47;;;;;;;;;9.00;7.00;;;;;2.65;67.34;100348.22;146610;585;47012;-68
2024/01/15 05:17:56;;;;;;;;;37.00;32.25;;;;;4.43;67.77;100643.63;146605;702;47011;-69
2024/01/15 05:20:53;;;;;;;;;95.33;86.33;;;;;4.50;68.09;100644.16;146606;753;47038;-69
2024/01/15 05:24:09;;;;;;;;;21.75;20.75;;;;;2.95;66.94;100353.09;146608;635;46020;-69
2024/01/15 05:27:01;;;;;;;;;9.00;8.00;;;;;4.67;67.87;100641.94;146607;609;46915;-70
2024/01/15 05:30:04;;;;;;;;;19.00;17.00;;;;;4.75;67.48;100654.56;146607;565;46010;-69
2024/01/15 05:33:09;;;;;;;;;11.75;11.75;;;;;3.28;66.94;100368.34;146606;597;48012;-70
2024/01/15 05:36:11;;;;;;;;;77.33;59.67;;;;;4.92;67.50;100647.19;146607;595;47020;-69
2024/01/15 05:39:07;;;;;;;;;82.33;69.33;;;;;4.95;67.81;100655.09;146604;586;46012;-69
2024/01/15 05:42:14;;;;;;;;;90.00;79.67;;;;;4.96;67.66;100650.09;146610;668;47020;-69
2024/01/15 05:45:15;;;;;;;;;116.67;94.67;;;;;4.94;67.40;100649.09;146612;631;46016;-69
2024/01/15 05:48:23;;;;;;;;;;;;;;;;;;;;;
2024/01/15 05:51:20;;;;;;;;;91.67;76.67;;;;;4.91;67.63;100645.41;146609;612;46024;-69
2024/01/15 05:54:20;;;;;;;;;47.50;36.75;;;;;4.83;67.42;100637.16;146608;619;47021;-69
2024/01/15 05:57:16;;;;;;;;;29.75;25.25;;;;;4.79;67.26;100636.00;146606;566;46012;-69
2024/01/15 06:00:33;;;;;;;;;25.00;21.75;;;;;3.03;66.99;100328.09;146606;575;46020;-70
2024/01/15 06:03:43;;;;;;;;;15.75;11.75;;;;;4.77;67.26;100632.47;146605;575;46017;-70
2024/01/15 06:06:38;;;;;;;;;10.75;9.25;;;;;4.78;67.81;100626.53;146616;573;46020;-69
2024/01/15 06:09:45;;;;;;;;;8.75;7.75;;;;;4.83;67.26;100634.59;146613;594;46029;-68
2024/01/15 06:12:42;;;;;;;;;7.25;7.00;;;;;4.89;68.05;100636.69;146614;597;46020;-70
2024/01/15 06:15:37;;;;;;;;;26.75;21.75;;;;;4.92;68.29;100627.50;146602;571;47010;-69
2024/01/15 06:18:45;;;;;;;;;61.25;44.00;;;;;4.93;68.21;100628.44;146606;642;46021;-68
2024/01/15 06:21:37;;;;;;;;;30.50;26.75;;;;;5.03;68.16;100636.91;146604;683;46034;-67
2024/01/15 06:25:10;;;;;;;;;70.75;54.00;;;;;4.37;67.92;100497.72;146602;619;47011;-68
2024/01/15 06:28:05;;;;;;;;;59.25;41.50;;;;;5.35;68.86;100632.25;146601;637;46916;-69
2024/01/15 06:31:05;;;;;;;;;59.25;45.75;;;;;5.51;68.29;100640.25;146605;601;47020;-69
2024/01/15 06:34:06;;;;;;;;;52.75;43.50;;;;;5.55;67.62;100626.84;146603;617;46014;-69
2024/01/15 06:37:02;;;;;;;;;62.25;46.75;;;;;5.60;66.86;100617.75;146603;591;48010;-67
2024/01/15 06:40:21;;;;;;;;;47.00;35.50;;;;;5.64;66.46;100617.19;146604;565;46016;-68
2024/01/15 06:43:15;;;;;;;;;44.50;37.25;;;;;5.66;66.93;100619.84;146604;595;46020;-68
2024/01/15 06:46:12;;;;;;;;;46.00;36.25;;;;;5.69;67.08;100623.53;146601;615;47015;-69
2024/01/15 06:49:36;;;;;;;;;53.25;41.00;;;;;5.75;66.26;100626.50;146605;603;46020;-69
2024/01/15 06:52:41;;;;;;;;;48.50;37.50;;;;;5.77;67.59;100634.34;146605;576;46016;-69
2024/01/15 06:55:41;;;;;;;;;41.25;35.00;;;;;5.76;67.36;100643.75;146604;566;46021;-69
2024/01/15 06:58:56;;;;;;;;;67.00;53.25;;;;;4.93;67.29;100506.00;146602;570;46016;-70
2024/01/15 07:01:56;;;;;;;;;84.67;70.00;;;;;5.86;68.11;100641.81;146605;651;47020;-69
2024/01/15 07:05:04;;;;;;;;;310.00;244.50;;;;;4.32;67.09;100361.34;146605;564;48012;-70
2024/01/15 07:08:09;;;;;;;;;142.50;114.25;;;;;6.00;68.38;100638.53;146615;694;46020;-70
2024/01/15 07:11:23;;;;;;;;;;;;;;;;;;;;;
2024/01/15 07:14:22;;;;;;;;;75.00;57.33;;;;;6.11;68.10;100637.56;146605;663;47012;-69
2024/01/15 07:17:25;;;;;;;;;64.00;49.00;;;;;6.22;67.99;100630.56;146605;622;46017;-69
2024/01/15 07:20:19;;;;;;;;;69.50;54.25;;;;;6.32;68.58;100624.34;146605;620;46020;-69
2024/01/15 07:23:27;;;;;;;;;58.75;46.50;;;;;6.41;67.42;100632.66;146600;614;47923;-73
2024/01/15 07:26:28;;;;;;;;;67.25;49.50;;;;;6.51;68.52;100629.94;146606;663;46012;-71
2024/01/15 07:29:33;;;;;;;;;;;;;;;;;;;;;
2024/01/15 07:32:36;;;;;;;;;65.50;51.25;;;;;6.77;68.57;100629.03;146602;565;46913;-71
2024/01/15 07:35:42;;;;;;;;;69.00;54.00;;;;;6.94;68.48;100631.00;146601;626;46016;-70
2024/01/15 07:38:40;;;;;;;;;81.33;69.33;;;;;7.14;68.81;100632.28;146609;625;46021;-70
2024/01/15 07:41:39;;;;;;;;;79.00;65.67;;;;;7.31;68.57;100630.75;146613;571;46012;-71
2024/01/15 07:44:32;;;;;;;;;106.50;90.00;;;;;7.49;68.17;100645.62;146616;613;47010;-70
2024/01/15 07:47:24;;;;;;;;;141.75;121.75;;;;;7.62;67.07;100654.19;146611;564;47016;-71
2024/01/15 07:50:21;;;;;;;;;150.00;126.75;;;;;7.71;66.08;100659.03;146617;600;47010;-71
2024/01/15 07:53:16;;;;;;;;;128.00;118.00;;;;;7.82;64.53;100657.13;146613;599;46017;-71
2024/01/15 07:56:28;;;;;;;;;106.25;92.75;;;;;7.89;63.67;100653.22;146612;572;46031;-71
2024/01/15 07:59:40;;;;;;;;;;;;;;;;;;;;;
2024/01/15 08:02:37;;;;;;;;;88.00;80.67;;;;;8.03;63.59;100642.03;146609;584;48020;-70
2024/01/15 08:05:39;;;;;;;;;84.00;72.00;;;;;8.14;62.68;100637.50;146613;632;46012;-70
2024/01/15 08:08:36;;;;;;;;;76.67;66.67;;;;;8.21;63.13;100631.91;146612;647;47021;-70
2024/01/15 08:11:40;;;;;;;;;87.00;74.00;;;;;8.31;63.76;100640.28;146612;665;46016;-71
2024/01/15 08:14:35;;;;;;;;;88.67;80.33;;;;;8.40;63.96;100641.66;146617;706;47010;-72
2024/01/15 08:17:30;;;;;;;;;91.33;85.67;;;;;8.52;64.22;100638.09;146613;580;46012;-71
2024/01/15 08:20:34;;;;;;;;;97.33;84.67;;;;;8.62;63.36;100636.91;146614;618;47020;-71
2024/01/15 08:23:29;;;;;;;;;90.67;82.00;;;;;8.70;63.44;100648.59;146613;727;46017;-71
2024/01/15 08:26:29;;;;;;;;;82.00;70.67;;;;;8.75;63.35;100631.66;146607;571;47020;-71
2024/01/15 08:29:25;;;;;;;;;78.67;69.00;;;;;8.85;63.44;100642.50;146605;582;46035;-72
2024/01/15 08:32:35;;;;;;;;;85.00;75.00;;;;;8.94;63.66;100631.00;146612;588;47021;-69
2024/01/15 08:35:40;;;;;;;;;90.33;80.67;;;;;9.09;62.94;100627.47;146612;683;47012;-70
2024/01/15 08:38:36;;;;;;;;;98.25;89.25;;;;;9.22;62.99;100625.69;146616;584;47010;-72
2024/01/15 08:41:44;;;;;;;;;94.33;82.67;;;;;9.35;62.63;100619.47;146614;829;46012;-69
2024/01/15 08:44:32;;;;;;;;;95.50;83.25;;;;;9.49;64.12;100630.56;146714;566;46012;-67
2024/01/15 08:47:35;;;;;;;;;116.00;103.50;;;;;9.65;61.91;100621.91;146623;575;46012;-66
2024/01/15 08:50:37;;;;;;;;;102.75;94.00;;;;;9.89;62.36;100624.91;146621;585;47013;-66
2024/01/15 08:53:35;;;;;;;;;113.75;97.75;;;;;10.20;61.77;100626.50;146621;645;47012;-66
2024/01/15 08:56:36;;;;;;;;;101.50;92.50;;;;;10.49;59.74;100615.91;146615;576;47010;-64
2024/01/15 08:59:32;;;;;;;;;80.67;73.67;;;;;10.83;59.86;100612.38;146617;929;47012;-65
2024/01/15 09:02:29;;;;;;;;;73.00;60.00;;;;;11.17;58.57;100616.59;146622;580;46010;-67
2024/01/15 09:05:27;;;;;;;;;77.00;65.33;;;;;11.58;57.40;100615.88;146616;581;47016;-66
2024/01/15 09:08:32;;;;;;;;;73.67;62.67;;;;;11.96;57.07;100602.06;146621;615;46010;-66
2024/01/15 09:11:24;;;;;;;;;76.00;64.67;;;;;12.38;55.39;100609.91;146618;569;46012;-67
2024/01/15 09:14:29;;;;;;;;;80.33;73.00;;;;;12.65;55.15;100604.09;146621;625;46021;-66
2024/01/15 09:17:32;;;;;;;;;79.33;75.00;;;;;12.86;54.26;100591.91;146617;583;46012;-67
2024/01/15 09:20:32;;;;;;;;;75.33;63.00;;;;;13.10;53.26;100598.91;146613;570;48010;-66
2024/01/15 09:23:24;;;;;;;;;77.33;63.00;;;;;13.32;53.78;100585.94;146612;657;46014;-67
2024/01/15 09:26:17;;;;;;;;;61.00;47.75;;;;;13.67;52.13;100577.62;146615;602;46020;-67
2024/01/15 09:29:13;;;;;;;;;54.75;43.75;;;;;13.96;52.00;100574.38;146614;581;46016;-67
2024/01/15 09:32:09;;;;;;;;;30.50;25.75;;;;;14.09;49.69;100549.59;146611;595;47010;-67
2024/01/15 09:35:13;;;;;;;;;22.75;18.25;;;;;14.01;51.39;100545.84;146611;644;46013;-65
2024/01/15 09:38:19;;;;;;;;;19.75;17.00;;;;;13.95;52.16;100537.81;146614;587;46020;-67
2024/01/15 09:41:25;;;;;;;;;23.25;21.75;;;;;14.04;52.27;100532.91;146609;577;46012;-67
2024/01/15 09:44:30;;;;;;;;;19.50;19.25;;;;;14.13;51.25;100534.94;146619;594;46021;-67
2024/01/15 09:47:25;;;;;;;;;10.75;10.00;;;;;14.09;50.06;100534.84;146615;639;47014;-66
2024/01/15 09:50:35;;;;;;;;;;;;;;;;;;;;;
2024/01/15 09:53:38;;;;;;;;;18.00;17.75;;;;;14.06;52.16;100519.09;146613;608;46916;-67
2024/01/15 09:56:41;;;;;;;;;9.75;9.00;;;;;14.02;52.43;100518.97;146621;617;46020;-67
2024/01/15 09:59:40;;;;;;;;;22.25;19.50;;;;;13.92;52.57;100503.81;146615;598;47012;-66
2024/01/15 10:02:32;;;;;;;;;7.00;6.00;;;;;13.72;51.57;100506.62;146619;698;47010;-67
2024/01/15 10:05:39;;;;;;;;;7.25;6.50;;;;;13.58;52.39;100487.00;146615;565;46016;-69
2024/01/15 10:08:36;;;;;;;;;7.50;6.00;;;;;13.58;51.51;100487.00;146624;574;46010;-67
2024/01/15 10:11:35;;;;;;;;;6.75;6.00;;;;;13.63;52.61;100473.31;146614;627;46030;-70
2024/01/15 10:14:41;;;;;;;;;7.50;5.00;;;;;13.69;51.71;100485.69;146622;712;46010;-67
2024/01/15 10:17:36;;;;;;;;;6.00;6.00;;;;;13.71;51.20;100468.38;146617;564;46016;-68
2024/01/15 10:20:31;;;;;;;;;9.25;6.00;;;;;13.71;51.74;100446.66;146624;585;45021;-69
2024/01/15 10:23:32;;;;;;;;;6.25;5.75;;;;;13.76;51.70;100442.47;146616;579;47028;-68
2024/01/15 10:26:34;;;;;;;;;5.25;5.00;;;;;13.75;50.82;100430.28;146625;575;46010;-68
2024/01/15 10:29:50;;;;;;;;;7.25;6.25;;;;;12.37;52.95;100204.25;146619;602;47012;-68
2024/01/15 10:32:44;;;;;;;;;9.75;8.00;;;;;13.63;51.57;100422.94;146621;586;46022;-70
2024/01/15 10:35:40;;;;;;;;;9.00;7.50;;;;;13.64;51.45;100409.06;146616;625;47012;-69
2024/01/15 10:38:43;;;;;;;;;7.00;6.00;;;;;13.81;52.23;100400.09;146622;576;47010;-69
2024/01/15 10:41:49;;;;;;;;;6.00;5.25;;;;;14.02;50.40;100399.03;146618;574;46017;-69
2024/01/15 10:45:14;;;;;;;;;9.00;6.75;;;;;14.21;49.85;100403.13;146617;582;47010;-68
2024/01/15 10:48:41;;;;;;;;;6.50;6.50;;;;;14.24;50.05;100405.81;146615;627;46016;-68
2024/01/15 10:51:38;;;;;;;;;5.25;4.75;;;;;14.20;50.86;100399.59;146623;608;46021;-65
2024/01/15 10:54:44;;;;;;;;;5.75;5.00;;;;;14.20;51.52;100396.09;146618;633;46012;-68
2024/01/15 10:57:46;;;;;;;;;9.00;4.25;;;;;14.21;50.82;100388.34;146621;571;46021;-70
2024/01/15 11:00:43;;;;;;;;;5.25;5.25;;;;;14.19;51.09;100381.31;146613;611;47016;-69
2024/01/15 11:03:41;;;;;;;;;5.00;4.00;;;;;14.10;51.21;100369.75;146622;699;46020;-68
2024/01/15 11:07:01;;;;;;;;;6.00;6.00;;;;;13.93;52.02;100373.56;146616;569;47012;-68
2024/01/15 11:10:33;;;;;;;;;5.25;5.00;;;;;13.73;52.55;100372.87;146622;598;46030;-68
2024/01/15 11:13:58;;;;;;;;;7.00;7.00;;;;;13.51;53.48;100358.28;146616;570;47012;-68
2024/01/15 11:17:05;;;;;;;;;5.50;5.50;;;;;13.33;54.05;100348.16;146620;564;46020;-68
2024/01/15 11:20:11;;;;;;;;;6.25;5.00;;;;;13.15;53.77;100337.94;146618;565;46016;-68
2024/01/15 11:23:07;;;;;;;;;4.00;4.00;;;;;13.03;53.73;100329.72;146619;648;47012;-67
2024/01/15 11:26:14;;;;;;;;;11.75;9.50;;;;;13.03;54.77;100331.44;146616;608;46016;-68
2024/01/15 11:29:17;;;;;;;;;7.00;5.75;;;;;12.98;54.48;100330.38;146620;730;47010;-68
2024/01/15 11:32:17;;;;;;;;;6.25;6.00;;;;;12.90;55.11;100317.09;146617;565;47012;-68
2024/01/15 11:35:18;;;;;;;;;11.50;9.00;;;;;12.81;55.31;100317.66;146619;610;46021;-68
2024/01/15 11:38:38;;;;;;;;;9.00;9.00;;;;;12.70;55.71;100311.16;146619;626;46016;-68
2024/01/15 11:41:54;;;;;;;;;10.50;8.00;;;;;12.64;55.85;100308.34;146622;606;46013;-68
2024/01/15 11:45:26;;;;;;;;;6.00;5.00;;;;;12.53;55.21;100314.91;146618;707;47014;-69
2024/01/15 11:48:23;;;;;;;;;6.50;4.50;;;;;12.42;55.49;100319.69;146615;573;46020;-68
2024/01/15 11:51:34;;;;;;;;;5.00;5.00;;;;;12.36;55.92;100324.66;146619;577;46012;-68
2024/01/15 11:54:36;;;;;;;;;6.50;4.25;;;;;12.30;55.63;100322.69;146621;629;47012;-70
2024/01/15 11:57:50;;;;;;;;;6.00;4.75;;;;;12.21;56.02;100327.53;146617;605;47012;-68
2024/01/15 12:01:08;;;;;;;;;7.75;7.00;;;;;12.14;55.85;100328.16;146624;575;46010;-69
2024/01/15 12:04:08;;;;;;;;;4.25;4.25;;;;;12.12;55.99;100337.59;146618;613;46017;-68
2024/01/15 12:07:12;;;;;;;;;7.50;6.50;;;;;12.10;56.17;100328.87;146622;705;46020;-67
2024/01/15 12:10:10;;;;;;;;;7.25;7.25;;;;;12.11;56.39;100330.62;146622;572;46012;-69
2024/01/15 12:13:24;;;;;;;;;13.50;13.50;;;;;12.09;55.84;100316.72;146617;755;47021;-69
2024/01/15 12:16:28;;;;;;;;;14.00;12.75;;;;;12.08;55.98;100314.91;146612;629;46030;-69
2024/01/15 12:19:24;;;;;;;;;16.00;13.25;;;;;12.08;56.17;100314.91;146615;612;46010;-68
2024/01/15 12:22:26;;;;;;;;;32.00;29.00;;;;;12.05;56.03;100315.69;146612;570;46016;-68
2024/01/15 12:25:27;;;;;;;;;15.00;12.25;;;;;12.05;56.27;100312.19;146617;636;46010;-69
2024/01/15 12:28:19;;;;;;;;;12.00;12.00;;;;;12.03;57.30;100306.97;146612;585;46016;-69
2024/01/15 12:31:30;;;;;;;;;10.00;8.75;;;;;12.04;57.42;100305.25;146615;623;46010;-68
2024/01/15 12:34:37;;;;;;;;;11.00;9.25;;;;;12.00;56.86;100292.13;146616;596;46017;-69
2024/01/15 12:37:51;;;;;;;;;15.25;15.25;;;;;11.97;57.84;100289.41;146620;613;46020;-68
2024/01/15 12:40:49;;;;;;;;;8.50;7.75;;;;;11.95;59.15;100293.66;146612;580;47017;-68
2024/01/15 12:43:46;;;;;;;;;10.50;9.50;;;;;11.93;57.84;100291.81;146620;571;47020;-69
2024/01/15 12:46:57;;;;;;;;;12.00;12.00;;;;;11.90;57.25;100291.69;146619;700;46012;-69
2024/01/15 12:50:06;;;;;;;;;47.25;40.25;;;;;11.90;57.93;100287.41;146615;626;47011;-69
2024/01/15 12:53:14;;;;;;;;;;;;;;;;;;;;;
2024/01/15 12:56:12;;;;;;;;;37.25;33.75;;;;;11.87;58.67;100296.78;146618;607;47010;-68
2024/01/15 12:59:28;;;;;;;;;12.25;12.00;;;;;11.87;58.16;100286.38;146617;588;47012;-67
2024/01/15 13:02:27;;;;;;;;;39.50;33.25;;;;;11.84;59.26;100276.75;146621;576;46021;-69
2024/01/15 13:05:39;;;;;;;;;38.25;32.50;;;;;11.83;60.04;100282.75;146611;577;47920;-68
2024/01/15 13:08:43;;;;;;;;;16.00;14.75;;;;;11.77;60.37;100274.72;146619;655;46010;-69
2024/01/15 13:11:36;;;;;;;;;50.75;42.25;;;;;11.75;60.61;100281.59;146612;767;47012;-68
2024/01/15 13:14:37;;;;;;;;;49.75;36.25;;;;;11.71;61.69;100269.28;146616;602;46020;-67
2024/01/15 13:17:56;;;;;;;;;25.00;24.25;;;;;11.66;62.02;100269.12;146613;635;47012;-68
2024/01/15 13:21:02;;;;;;;;;;;;;;;;;;;;;
2024/01/15 13:24:03;;;;;;;;;37.50;32.50;;;;;11.55;62.95;100249.63;146613;582;47018;-67
2024/01/15 13:27:10;;;;;;;;;60.50;48.50;;;;;11.53;63.78;100246.97;146617;590;46021;-68
2024/01/15 13:30:10;;;;;;;;;54.25;44.00;;;;;11.52;63.50;100241.72;146613;610;47039;-68
2024/01/15 13:33:14;;;;;;;;;;;;;;;;;;;;;
2024/01/15 13:36:17;;;;;;;;;37.50;32.75;;;;;11.52;63.44;100239.09;146612;585;46913;-69
2024/01/15 13:39:20;;;;;;;;;55.25;45.75;;;;;10.13;63.14;99993.16;146622;637;46012;-68
2024/01/15 13:42:22;;;;;;;;;44.50;36.50;;;;;11.52;63.84;100233.91;146614;569;46016;-68
2024/01/15 13:45:35;;;;;;;;;;;;;;;;;;;;;
2024/01/15 13:48:30;;;;;;;;;27.75;26.50;;;;;11.53;61.52;100236.59;146618;574;46012;-70
2024/01/15 13:51:31;;;;;;;;;11.75;9.50;;;;;11.57;60.11;100222.00;146619;597;46010;-69
2024/01/15 13:54:44;;;;;;;;;;;;;;;;;;;;;
2024/01/15 13:57:51;;;;;;;;;17.75;14.75;;;;;11.66;59.94;100221.50;146620;573;46010;-70
2024/01/15 14:00:55;;;;;;;;;20.50;19.25;;;;;11.67;60.06;100220.66;146615;596;47012;-68
2024/01/15 14:03:51;;;;;;;;;18.75;18.25;;;;;11.70;60.62;100225.97;146617;604;46021;-68
2024/01/15 14:06:46;;;;;;;;;19.75;17.00;;;;;11.71;59.84;100220.84;146616;573;46016;-68
2024/01/15 14:09:57;;;;;;;;;10.00;8.50;;;;;11.73;60.55;100231.28;146619;600;46010;-68
2024/01/15 14:12:53;;;;;;;;;6.50;5.50;;;;;11.72;60.65;100230.41;146620;575;46014;-68
2024/01/15 14:15:55;;;;;;;;;4.00;4.00;;;;;11.73;59.78;100233.87;146622;676;46010;-68
2024/01/15 14:18:56;;;;;;;;;4.25;4.25;;;;;11.71;58.52;100222.53;146621;579;46012;-68
2024/01/15 14:21:54;;;;;;;;;6.25;5.00;;;;;11.73;58.41;100228.69;146623;571;46020;-70
2024/01/15 14:25:01;;;;;;;;;;;;;;;;;;;;;
2024/01/15 14:28:06;;;;;;;;;13.00;12.00;;;;;11.75;58.81;100222.72;146621;563;46010;-68
2024/01/15 14:31:26;;;;;;;;;5.50;5.25;;;;;10.96;58.41;100079.47;146614;625;47017;-69
2024/01/15 14:34:24;;;;;;;;;4.75;3.75;;;;;11.76;57.55;100221.00;146622;603;47010;-68